Aviation Digital Data Service (ADDS)

Output produced by METARs form (2133 UTC 16 August 2017)
found at http://www.aviationweather.gov/adds/metars/
 
LYPG 162130Z 01008KT 360V060 9999 SCT100 29/13 Q1014 NOSIG
TAF LYPG 161700Z 1618/1718 19005KT CAVOK TX35/1614Z TN21/1604Z
       
LYTV 162130Z VRB02KT CAVOK 23/16 Q1013
TAF LYTV 161700Z 1618/1718 34008KT CAVOK TX35/1713Z TN19/1703Z